Terminal Aerodrome Forecast
Issued by NWS Charleston, WV

Current Version | Previous Version | Text Only | Print | Product List | Glossary Off
Versions: 1 2 3 4 5 6 7 8 9 10 11 12 13 14 15 16 17 18 19 20 21 22 23 24 25 26 27 28 29

645
FTUS41 KRLX 221304 AAB
TAFBKW
TAF AMD
KBKW 221304Z 2213/2312 27007KT P6SM SCT009
     FM221400 29007KT P6SM SCT200
     FM230400 VRB03KT P6SM SCT040=

USA.gov is the U.S. government's official web portal to all federal, state and local government web resources and services.